Time;durP1;ratioP1;P1;durP2;ratioP2;P2;SDS_P1;SDS_P2;PMS_P1;PMS_P2;Temp;Humidity;BMP_temperature;BMP_pressure;BME280_temperature;BME280_humidity;BME280_pressure;Samples;Min_cycle;Max_cycle;Signal;HPM_P1;HPM_P2
2021/05/26 00:02:24;;;;;;;4.03;3.40;;;14.20;94.90;;;;;;5028987;28;20979;-68
2021/05/26 00:04:49;;;;;;;3.53;2.93;;;14.10;95.10;;;;;;5024837;28;20282;-67
2021/05/26 00:07:15;;;;;;;3.87;3.13;;;14.00;95.50;;;;;;5022587;28;20315;-67
2021/05/26 00:09:40;;;;;;;3.67;3.23;;;14.10;95.70;;;;;;5026868;28;20200;-67
2021/05/26 00:12:06;;;;;;;3.90;3.50;;;14.10;96.00;;;;;;5025516;28;20579;-67
2021/05/26 00:14:32;;;;;;;5.83;3.70;;;14.10;95.90;;;;;;5025771;28;20333;-67
2021/05/26 00:16:58;;;;;;;3.83;3.40;;;14.10;96.20;;;;;;5026126;28;20470;-67
2021/05/26 00:19:23;;;;;;;8.80;3.73;;;14.10;96.40;;;;;;5025909;28;20196;-67
2021/05/26 00:21:49;;;;;;;6.53;4.40;;;14.10;96.50;;;;;;5029565;28;20608;-67
2021/05/26 00:24:15;;;;;;;7.00;4.83;;;14.10;96.70;;;;;;5025369;28;20524;-69
2021/05/26 00:26:40;;;;;;;3.80;3.50;;;14.10;96.90;;;;;;5026084;28;20215;-67
2021/05/26 00:29:07;;;;;;;4.17;3.47;;;14.10;97.00;;;;;;5028559;28;20443;-68
2021/05/26 00:31:32;;;;;;;6.73;3.80;;;14.10;97.10;;;;;;5024449;28;20192;-68
2021/05/26 00:33:58;;;;;;;4.83;3.80;;;14.10;97.10;;;;;;5024675;28;20497;-68
2021/05/26 00:36:23;;;;;;;3.67;3.37;;;14.20;97.20;;;;;;5024156;28;20642;-68
2021/05/26 00:38:49;;;;;;;3.70;3.40;;;14.10;97.40;;;;;;5024120;28;20184;-68
2021/05/26 00:41:15;;;;;;;4.00;3.50;;;14.10;98.10;;;;;;5027159;28;20246;-68
2021/05/26 00:43:41;;;;;;;3.70;3.43;;;14.10;97.90;;;;;;5025890;28;20663;-68
2021/05/26 00:46:07;;;;;;;6.80;3.60;;;14.10;98.10;;;;;;5025670;28;20477;-68
2021/05/26 00:48:32;;;;;;;5.90;3.70;;;14.10;98.40;;;;;;5027416;28;20189;-68
2021/05/26 00:50:59;;;;;;;3.43;3.20;;;14.10;98.90;;;;;;5024737;28;20435;-68
2021/05/26 00:53:27;;;;;;;3.53;3.23;;;14.00;99.40;;;;;;5025548;28;20207;-67
2021/05/26 00:55:53;;;;;;;7.53;3.77;;;13.90;99.90;;;;;;5024166;28;21017;-67
2021/05/26 00:58:19;;;;;;;3.63;3.33;;;13.80;99.90;;;;;;5023607;28;20447;-68
2021/05/26 01:00:44;;;;;;;5.23;3.37;;;13.80;99.90;;;;;;5023194;28;20282;-67
2021/05/26 01:03:11;;;;;;;5.80;3.27;;;13.80;99.90;;;;;;5026066;28;20271;-66
2021/05/26 01:05:37;;;;;;;4.83;4.00;;;13.80;99.90;;;;;;5025719;28;20224;-67
2021/05/26 01:08:03;;;;;;;3.90;3.60;;;13.80;99.90;;;;;;5026058;28;20442;-68
2021/05/26 01:10:30;;;;;;;4.93;3.17;;;13.70;99.90;;;;;;5030254;28;20428;-67
2021/05/26 01:12:56;;;;;;;4.37;3.30;;;13.70;99.90;;;;;;5027326;28;20506;-68
2021/05/26 01:15:23;;;;;;;3.43;3.17;;;13.60;99.90;;;;;;5027489;28;21820;-66
2021/05/26 01:17:49;;;;;;;3.80;3.43;;;13.60;99.90;;;;;;5033282;28;20443;-67
2021/05/26 01:20:25;;;;;;;4.33;3.00;;;13.60;99.90;;;;;;5026712;28;21830;-69
2021/05/26 01:22:52;;;;;;;3.40;3.10;;;13.60;99.90;;;;;;5028804;28;20446;-68
2021/05/26 01:25:18;;;;;;;5.43;4.67;;;13.60;99.90;;;;;;5028055;28;20911;-69
2021/05/26 01:27:45;;;;;;;3.10;2.90;;;13.60;99.90;;;;;;5029651;28;20435;-69
2021/05/26 01:30:11;;;;;;;3.70;3.13;;;13.70;99.90;;;;;;5030650;28;21089;-68
2021/05/26 01:32:44;;;;;;;3.03;2.83;;;13.70;99.90;;;;;;5026238;28;20857;-67
2021/05/26 01:35:13;;;;;;;3.60;3.30;;;13.70;99.90;;;;;;5029479;28;20427;-66
2021/05/26 01:37:41;;;;;;;4.13;3.00;;;13.70;99.90;;;;;;5027033;28;20805;-67
2021/05/26 01:40:08;;;;;;;3.20;3.00;;;13.70;99.90;;;;;;5028040;28;20501;-68
2021/05/26 01:42:34;;;;;;;3.40;3.00;;;13.70;99.90;;;;;;5025565;28;20851;-69
2021/05/26 01:45:02;;;;;;;4.30;3.37;;;13.70;99.90;;;;;;5029920;28;20791;-68
2021/05/26 01:47:27;;;;;;;4.43;3.13;;;13.70;99.90;;;;;;5027538;28;20600;-68
2021/05/26 01:49:53;;;;;;;3.97;3.07;;;13.80;99.90;;;;;;5026333;28;20442;-67
2021/05/26 01:52:19;;;;;;;2.90;2.70;;;13.80;99.90;;;;;;5028398;28;20448;-69
2021/05/26 01:54:44;;;;;;;3.00;2.80;;;13.80;99.90;;;;;;5030034;28;20192;-67
2021/05/26 01:57:13;;;;;;;3.00;2.83;;;13.80;99.90;;;;;;5025758;28;20240;-68
2021/05/26 01:59:39;;;;;;;5.10;3.00;;;13.70;99.90;;;;;;5030358;28;20662;-66
2021/05/26 02:02:05;;;;;;;2.77;2.47;;;13.60;99.90;;;;;;5026247;28;20841;-67
2021/05/26 02:04:30;;;;;;;2.80;2.60;;;13.50;99.90;;;;;;5027685;28;20446;-66
2021/05/26 02:07:08;;;;;;;6.73;2.90;;;13.50;99.90;;;;;;5028689;28;20270;-69
2021/05/26 02:09:35;;;;;;;4.90;3.10;;;13.30;99.90;;;;;;5028129;28;20206;-67
2021/05/26 02:14:45;;;;;;;3.63;2.67;;;13.20;99.90;;;;;;5024355;28;20781;-68
2021/05/26 02:17:11;;;;;;;3.33;2.77;;;13.30;99.90;;;;;;5025866;28;20466;-68
2021/05/26 02:19:37;;;;;;;3.20;2.90;;;13.30;99.90;;;;;;5028412;28;20235;-67
2021/05/26 02:22:03;;;;;;;4.23;3.03;;;13.30;99.90;;;;;;5025147;28;20192;-68
2021/05/26 02:24:29;;;;;;;3.10;2.80;;;13.40;99.90;;;;;;5027075;28;20185;-69
2021/05/26 02:26:54;;;;;;;2.83;2.63;;;13.40;99.90;;;;;;5028698;28;20534;-68
2021/05/26 02:29:20;;;;;;;3.33;2.80;;;13.40;99.90;;;;;;5027455;28;20196;-67
2021/05/26 02:31:46;;;;;;;3.07;2.87;;;13.50;99.90;;;;;;5027913;28;20616;-68
2021/05/26 02:34:11;;;;;;;3.17;2.70;;;13.50;99.90;;;;;;5028469;28;20211;-67
2021/05/26 02:36:38;;;;;;;6.77;2.73;;;13.40;99.90;;;;;;5028880;28;20214;-69
2021/05/26 02:39:06;;;;;;;2.97;2.70;;;13.40;99.90;;;;;;5026212;28;20219;-68
2021/05/26 02:41:32;;;;;;;2.60;2.17;;;13.40;99.90;;;;;;5027746;28;20443;-67
2021/05/26 02:43:57;;;;;;;4.17;2.80;;;13.40;99.90;;;;;;5027947;28;20434;-69
2021/05/26 02:46:23;;;;;;;4.13;2.57;;;13.40;99.90;;;;;;5029912;28;20212;-69
2021/05/26 02:48:49;;;;;;;6.63;3.20;;;13.40;99.90;;;;;;5029392;28;20820;-69
2021/05/26 02:51:14;;;;;;;2.70;2.50;;;13.30;99.90;;;;;;5027660;28;20201;-68
2021/05/26 02:53:40;;;;;;;5.30;2.67;;;13.30;99.90;;;;;;5027338;28;20242;-69
2021/05/26 02:56:05;;;;;;;2.97;2.73;;;13.30;99.90;;;;;;5025424;28;20228;-69
2021/05/26 02:58:31;;;;;;;3.40;2.90;;;13.20;99.90;;;;;;5026685;28;20193;-68
2021/05/26 03:00:56;;;;;;;3.00;2.80;;;13.20;99.90;;;;;;5028091;28;20699;-67
2021/05/26 03:03:22;;;;;;;2.87;2.67;;;13.20;99.90;;;;;;5029030;28;20188;-69
2021/05/26 03:05:48;;;;;;;3.10;2.80;;;13.20;99.90;;;;;;5025782;28;20222;-69
2021/05/26 03:08:13;;;;;;;2.77;2.47;;;13.30;99.90;;;;;;5027777;28;20249;-69
2021/05/26 03:10:39;;;;;;;3.00;2.70;;;13.30;99.90;;;;;;5027165;28;20196;-68
2021/05/26 03:13:05;;;;;;;2.60;2.40;;;13.20;99.90;;;;;;5026069;28;20201;-69
2021/05/26 03:15:30;;;;;;;2.93;2.60;;;13.30;99.90;;;;;;5026196;28;20200;-69
2021/05/26 03:17:56;;;;;;;3.27;2.43;;;13.30;99.90;;;;;;5029772;28;20215;-69
2021/05/26 03:20:21;;;;;;;3.00;2.70;;;13.30;99.90;;;;;;5028179;28;20663;-68
2021/05/26 03:22:47;;;;;;;2.73;2.53;;;13.30;99.90;;;;;;5027145;28;20197;-67
2021/05/26 03:25:14;;;;;;;4.90;3.10;;;13.30;99.90;;;;;;5025737;28;20295;-69
2021/05/26 03:27:40;;;;;;;3.30;2.40;;;13.40;99.90;;;;;;5026416;28;20431;-68
2021/05/26 03:30:12;;;;;;;4.13;2.60;;;13.40;99.90;;;;;;5026707;28;20459;-69
2021/05/26 03:32:39;;;;;;;2.90;2.50;;;13.30;99.90;;;;;;5022702;28;20486;-68
2021/05/26 03:35:06;;;;;;;3.23;2.77;;;13.30;99.90;;;;;;5026513;28;20436;-68
2021/05/26 03:37:32;;;;;;;3.90;2.87;;;13.30;99.90;;;;;;5025352;28;20970;-67
2021/05/26 03:39:59;;;;;;;3.60;2.50;;;13.30;99.90;;;;;;5026139;28;20479;-69
2021/05/26 03:42:24;;;;;;;11.40;3.30;;;13.30;99.90;;;;;;5027511;28;20524;-66
2021/05/26 03:44:50;;;;;;;2.77;2.50;;;13.40;99.90;;;;;;5027783;28;20563;-67
2021/05/26 03:47:17;;;;;;;7.33;3.47;;;13.30;99.90;;;;;;5026311;28;20895;-67
2021/05/26 03:49:43;;;;;;;2.90;2.60;;;13.20;99.90;;;;;;5026613;28;20470;-69
2021/05/26 03:52:09;;;;;;;2.60;2.40;;;13.10;99.90;;;;;;5025311;28;20871;-66
2021/05/26 03:54:35;;;;;;;3.00;2.60;;;13.10;99.90;;;;;;5025453;28;20454;-67
2021/05/26 03:57:05;;;;;;;4.03;2.70;;;13.10;99.90;;;;;;5026903;28;20510;-69
2021/05/26 03:59:30;;;;;;;4.33;2.23;;;13.00;99.90;;;;;;5027360;28;20958;-68
2021/05/26 04:01:56;;;;;;;3.57;2.40;;;12.90;99.90;;;;;;5024742;28;20423;-69
2021/05/26 04:04:22;;;;;;;5.00;2.70;;;12.90;99.90;;;;;;5028911;28;20674;-69
2021/05/26 04:06:48;;;;;;;5.00;2.30;;;12.80;99.90;;;;;;5026565;28;20215;-68
2021/05/26 04:09:14;;;;;;;4.37;2.00;;;12.60;99.90;;;;;;5025878;28;20440;-68
2021/05/26 04:11:40;;;;;;;3.10;2.20;;;12.50;99.90;;;;;;5029862;28;20194;-68
2021/05/26 04:14:06;;;;;;;2.70;2.10;;;12.30;99.90;;;;;;5025243;28;20275;-69
2021/05/26 04:16:31;;;;;;;3.50;2.30;;;12.20;99.90;;;;;;5026074;28;20483;-67
2021/05/26 04:18:57;;;;;;;4.83;2.63;;;12.10;99.90;;;;;;5025099;28;20284;-67
2021/05/26 04:21:23;;;;;;;6.67;2.50;;;12.10;99.90;;;;;;5027593;28;20207;-68
2021/05/26 04:23:48;;;;;;;5.90;2.20;;;12.10;99.90;;;;;;5025880;28;20199;-69
2021/05/26 04:26:14;;;;;;;8.83;2.30;;;12.10;99.90;;;;;;5026910;28;20616;-69
2021/05/26 04:28:44;;;;;;;5.87;2.20;;;12.10;99.90;;;;;;5023909;28;20258;-67
2021/05/26 04:31:11;;;;;;;3.60;2.43;;;12.10;99.90;;;;;;5028543;28;20207;-68
2021/05/26 04:33:38;;;;;;;2.40;2.20;;;12.10;99.90;;;;;;5025472;28;20448;-68
2021/05/26 04:36:04;;;;;;;2.57;2.10;;;12.10;99.90;;;;;;5024557;28;20840;-66
2021/05/26 04:38:30;;;;;;;4.43;2.40;;;12.10;99.90;;;;;;5028809;28;20434;-69
2021/05/26 04:40:55;;;;;;;3.50;2.17;;;12.00;99.90;;;;;;5023088;28;20434;-65
2021/05/26 04:43:21;;;;;;;2.70;2.50;;;12.00;99.90;;;;;;5024840;28;20189;-68
2021/05/26 04:45:47;;;;;;;5.20;2.50;;;11.90;99.90;;;;;;5026971;28;20204;-68
2021/05/26 04:48:12;;;;;;;5.53;3.17;;;11.80;99.90;;;;;;5026867;28;20191;-67
2021/05/26 04:50:38;;;;;;;4.50;2.50;;;11.90;99.90;;;;;;5024075;28;20693;-68
2021/05/26 04:53:04;;;;;;;4.87;2.70;;;11.80;99.90;;;;;;5026909;28;20196;-67
2021/05/26 04:55:29;;;;;;;2.23;2.03;;;11.80;99.90;;;;;;5024046;28;20241;-68
2021/05/26 04:57:59;;;;;;;5.40;2.17;;;11.70;99.90;;;;;;5024847;28;20201;-69
2021/05/26 05:00:26;;;;;;;8.93;2.63;;;11.70;99.90;;;;;;5024696;28;20391;-68
2021/05/26 05:02:52;;;;;;;3.90;2.23;;;11.60;99.90;;;;;;5023147;28;20504;-68
2021/05/26 05:05:17;;;;;;;7.20;2.50;;;11.70;99.90;;;;;;5023774;28;20439;-68
2021/05/26 05:07:43;;;;;;;5.10;2.20;;;11.60;99.90;;;;;;5028176;28;20176;-67
2021/05/26 05:10:09;;;;;;;3.67;2.17;;;11.70;99.90;;;;;;5023245;28;20913;-69
2021/05/26 05:12:34;;;;;;;3.23;2.20;;;11.60;99.90;;;;;;5024063;28;20843;-68
2021/05/26 05:15:00;;;;;;;2.87;2.40;;;11.60;99.90;;;;;;5025489;28;20431;-68
2021/05/26 05:17:25;;;;;;;2.30;2.10;;;11.60;99.90;;;;;;5022926;28;21207;-67
2021/05/26 05:19:51;;;;;;;2.57;2.00;;;11.60;99.90;;;;;;5029386;28;20227;-70
2021/05/26 05:22:17;;;;;;;11.37;2.83;;;11.60;99.90;;;;;;5026181;28;20176;-69
2021/05/26 05:24:42;;;;;;;4.37;2.40;;;11.60;99.90;;;;;;5024260;28;20193;-68
2021/05/26 05:27:08;;;;;;;3.33;2.40;;;11.60;99.90;;;;;;5023564;28;20209;-68
2021/05/26 05:29:33;;;;;;;7.10;2.87;;;11.60;99.90;;;;;;5024796;28;20707;-69
2021/05/26 05:31:59;;;;;;;5.87;2.30;;;11.70;99.90;;;;;;5022322;28;20266;-69
2021/05/26 05:34:25;;;;;;;3.40;2.07;;;11.70;99.90;;;;;;5025862;28;20241;-70
2021/05/26 05:36:50;;;;;;;3.90;2.00;;;11.70;99.90;;;;;;5020100;28;20588;-68
2021/05/26 05:39:17;;;;;;;3.23;1.93;;;11.70;99.90;;;;;;5025827;28;20181;-67
2021/05/26 05:41:44;;;;;;;3.43;2.03;;;11.60;99.90;;;;;;5021739;28;20790;-68
2021/05/26 05:44:10;;;;;;;5.97;2.73;;;11.70;99.90;;;;;;5025686;28;20439;-68
2021/05/26 05:46:36;;;;;;;2.47;1.93;;;11.60;99.90;;;;;;5027456;28;20462;-71
2021/05/26 05:49:01;;;;;;;3.70;2.57;;;11.60;99.90;;;;;;5025892;28;20662;-69
2021/05/26 05:51:27;;;;;;;4.53;2.53;;;11.60;99.90;;;;;;5024428;28;20216;-67
2021/05/26 05:53:53;;;;;;;4.30;2.13;;;11.70;99.90;;;;;;5023133;28;20184;-67
2021/05/26 05:56:18;;;;;;;3.93;2.20;;;11.70;99.90;;;;;;5027387;28;20707;-68
2021/05/26 05:58:44;;;;;;;6.23;2.50;;;11.70;99.90;;;;;;5029674;28;20199;-69
2021/05/26 06:01:09;;;;;;;3.37;2.30;;;11.60;99.90;;;;;;5027364;28;20220;-68
2021/05/26 06:03:35;;;;;;;3.80;2.40;;;11.70;99.90;;;;;;5025746;28;20185;-69
2021/05/26 06:06:01;;;;;;;2.90;2.37;;;11.70;99.90;;;;;;5030100;28;20208;-68
2021/05/26 06:08:26;;;;;;;3.10;2.10;;;11.70;99.90;;;;;;5030133;28;20834;-68
2021/05/26 06:10:52;;;;;;;6.93;2.50;;;11.60;99.90;;;;;;5031253;28;20184;-67
2021/05/26 06:13:18;;;;;;;7.03;2.50;;;11.60;99.90;;;;;;5024556;28;20678;-67
2021/05/26 06:15:43;;;;;;;2.97;2.00;;;11.60;99.90;;;;;;5028495;28;20659;-67
2021/05/26 06:18:09;;;;;;;2.60;2.40;;;11.70;99.90;;;;;;5028254;28;20473;-68
2021/05/26 06:20:35;;;;;;;2.80;2.17;;;11.70;99.90;;;;;;5030006;28;20200;-67
2021/05/26 06:23:00;;;;;;;3.63;2.40;;;11.70;99.90;;;;;;5029838;28;20189;-67
2021/05/26 06:25:26;;;;;;;4.63;2.03;;;11.70;99.90;;;;;;5023233;28;20221;-67
2021/05/26 06:27:52;;;;;;;4.63;2.20;;;11.60;99.90;;;;;;5028701;28;20703;-65
2021/05/26 06:30:18;;;;;;;3.87;2.77;;;11.60;99.90;;;;;;5028631;28;20184;-67
2021/05/26 06:32:44;;;;;;;3.50;2.50;;;11.60;99.90;;;;;;5027639;28;20441;-68
2021/05/26 06:35:11;;;;;;;4.00;3.10;;;11.60;99.90;;;;;;5023997;28;20462;-67
2021/05/26 06:37:37;;;;;;;2.90;2.47;;;11.60;99.90;;;;;;5029079;28;20467;-67
2021/05/26 06:40:05;;;;;;;5.43;2.40;;;11.60;99.90;;;;;;5024532;28;20439;-69
2021/05/26 06:42:31;;;;;;;4.87;2.50;;;11.60;99.90;;;;;;5030584;28;20195;-66
2021/05/26 06:44:57;;;;;;;5.37;2.90;;;11.60;99.90;;;;;;5025070;28;20423;-69
2021/05/26 06:47:22;;;;;;;4.73;2.60;;;11.60;99.90;;;;;;5027026;28;21248;-69
2021/05/26 06:49:48;;;;;;;5.27;2.70;;;11.50;99.90;;;;;;5028549;28;20185;-66
2021/05/26 06:52:13;;;;;;;4.50;2.37;;;11.50;99.90;;;;;;5028925;28;20634;-69
2021/05/26 06:54:39;;;;;;;5.43;2.60;;;11.50;99.90;;;;;;5027157;28;20682;-68
2021/05/26 06:57:05;;;;;;;10.60;2.37;;;11.60;99.90;;;;;;5026101;28;20718;-69
2021/05/26 06:59:31;;;;;;;5.80;2.43;;;11.60;99.90;;;;;;5028656;28;20189;-71
2021/05/26 07:01:56;;;;;;;6.20;3.13;;;11.50;99.90;;;;;;5025971;28;20435;-69
2021/05/26 07:04:22;;;;;;;4.30;3.00;;;11.60;99.90;;;;;;5028753;28;20184;-69
2021/05/26 07:06:48;;;;;;;4.93;2.23;;;11.60;99.90;;;;;;5027819;28;20219;-70
2021/05/26 07:09:13;;;;;;;6.20;2.90;;;11.60;99.90;;;;;;5030445;28;20279;-70
2021/05/26 07:11:39;;;;;;;2.80;2.20;;;11.60;99.90;;;;;;5029121;28;20179;-68
2021/05/26 07:14:04;;;;;;;3.60;2.23;;;11.60;99.90;;;;;;5025063;28;20208;-66
2021/05/26 07:16:30;;;;;;;3.67;2.83;;;11.60;99.90;;;;;;5019925;28;20216;-68
2021/05/26 07:18:59;;;;;;;2.30;2.10;;;11.60;99.90;;;;;;5025490;28;20192;-66
2021/05/26 07:21:25;;;;;;;2.90;2.47;;;11.50;99.90;;;;;;5024167;28;20203;-69
2021/05/26 07:23:51;;;;;;;2.43;2.00;;;11.50;99.90;;;;;;5022543;28;20839;-68
2021/05/26 07:26:17;;;;;;;5.13;2.27;;;11.50;99.90;;;;;;5025666;28;20295;-68
2021/05/26 07:28:42;;;;;;;5.13;2.97;;;11.50;99.90;;;;;;5025997;28;20478;-68
2021/05/26 07:31:08;;;;;;;2.33;2.03;;;11.50;99.90;;;;;;5026302;28;20192;-69
2021/05/26 07:33:34;;;;;;;3.60;2.53;;;11.50;99.90;;;;;;5027140;28;20215;-70
2021/05/26 07:35:59;;;;;;;5.00;2.57;;;11.60;99.90;;;;;;5027924;28;21267;-68
2021/05/26 07:38:25;;;;;;;4.53;2.50;;;11.70;99.90;;;;;;5026812;28;20181;-68
2021/05/26 07:40:51;;;;;;;3.67;2.07;;;11.70;99.90;;;;;;5026580;28;20315;-68
2021/05/26 07:43:17;;;;;;;3.60;2.83;;;11.80;99.90;;;;;;5024112;28;20415;-66
2021/05/26 07:45:43;;;;;;;3.97;2.57;;;11.80;99.90;;;;;;5029311;28;20733;-70
2021/05/26 07:48:08;;;;;;;4.67;2.20;;;11.80;99.90;;;;;;5024646;28;20200;-70
2021/05/26 07:50:35;;;;;;;6.10;3.00;;;11.80;99.90;;;;;;5025148;28;20196;-67
2021/05/26 07:53:02;;;;;;;3.30;2.37;;;11.80;99.90;;;;;;5025367;28;20183;-68
2021/05/26 07:55:28;;;;;;;3.50;2.57;;;11.90;99.90;;;;;;5026886;28;20451;-68
2021/05/26 07:57:54;;;;;;;6.40;2.83;;;11.80;99.90;;;;;;5027652;28;20430;-67
2021/05/26 08:00:20;;;;;;;4.13;2.50;;;11.80;99.90;;;;;;5028124;28;20427;-67
2021/05/26 08:02:46;;;;;;;3.70;2.60;;;11.70;99.90;;;;;;5023052;28;20454;-68
2021/05/26 08:05:12;;;;;;;7.20;2.63;;;11.70;99.90;;;;;;5025916;28;20439;-67
2021/05/26 08:07:38;;;;;;;4.97;2.40;;;11.70;99.90;;;;;;5026042;28;20190;-68
2021/05/26 08:10:05;;;;;;;8.07;3.20;;;11.80;99.90;;;;;;5027030;28;21149;-68
2021/05/26 08:12:32;;;;;;;2.40;2.00;;;11.80;99.90;;;;;;5024524;28;20183;-67
2021/05/26 08:14:57;;;;;;;3.40;2.17;;;11.60;99.90;;;;;;5024037;28;20517;-68
2021/05/26 08:17:23;;;;;;;4.20;2.43;;;11.60;99.90;;;;;;5026315;28;21089;-67
2021/05/26 08:19:49;;;;;;;5.83;2.07;;;11.60;99.90;;;;;;5024790;28;20694;-68
2021/05/26 08:22:14;;;;;;;2.33;2.10;;;11.70;99.90;;;;;;5021004;28;20212;-67
2021/05/26 08:24:40;;;;;;;2.87;2.20;;;11.70;99.90;;;;;;5025525;28;20185;-69
2021/05/26 08:27:06;;;;;;;4.40;2.53;;;11.70;99.90;;;;;;5023639;28;20254;-69
2021/05/26 08:29:33;;;;;;;6.97;2.43;;;11.80;99.90;;;;;;5025357;28;20302;-68
2021/05/26 08:31:59;;;;;;;7.70;2.30;;;11.80;99.90;;;;;;5024168;28;20204;-68
2021/05/26 08:34:25;;;;;;;2.80;2.20;;;11.80;99.90;;;;;;5026707;28;20489;-67
2021/05/26 08:36:51;;;;;;;3.23;2.40;;;11.80;99.90;;;;;;5021845;28;20243;-68
2021/05/26 08:39:17;;;;;;;4.27;2.40;;;11.80;99.90;;;;;;5026240;28;20501;-69
2021/05/26 08:41:45;;;;;;;5.63;4.47;;;11.80;99.90;;;;;;5023402;28;20237;-68
2021/05/26 08:44:13;;;;;;;4.40;2.60;;;11.80;99.90;;;;;;5023035;28;20510;-68
2021/05/26 08:46:40;;;;;;;5.07;2.90;;;11.80;99.90;;;;;;5025027;28;20443;-70
2021/05/26 08:49:06;;;;;;;11.00;3.10;;;11.90;99.90;;;;;;5025289;28;21042;-66
2021/05/26 08:51:32;;;;;;;8.97;3.00;;;12.00;99.90;;;;;;5022601;28;20427;-67
2021/05/26 08:53:58;;;;;;;7.67;3.33;;;12.00;99.90;;;;;;5022586;28;20294;-66
2021/05/26 08:56:24;;;;;;;5.37;3.27;;;12.10;99.90;;;;;;5023110;28;20620;-67
2021/05/26 08:58:50;;;;;;;5.80;3.53;;;12.10;99.90;;;;;;5023635;28;20443;-68
2021/05/26 09:01:15;;;;;;;5.57;3.27;;;12.10;99.90;;;;;;5024836;28;20185;-70
2021/05/26 09:03:42;;;;;;;7.27;3.30;;;12.10;99.90;;;;;;5024631;28;20185;-68
2021/05/26 09:06:11;;;;;;;3.90;2.70;;;12.10;99.90;;;;;;5023223;28;20215;-68
2021/05/26 09:08:49;;;;;;;3.90;2.87;;;12.20;99.90;;;;;;5026628;28;20440;-66
2021/05/26 09:11:15;;;;;;;4.83;3.07;;;12.20;99.90;;;;;;5021780;28;20439;-67
2021/05/26 09:13:43;;;;;;;4.37;2.97;;;12.10;99.90;;;;;;5025271;28;20439;-68
2021/05/26 09:16:26;;;;;;;6.37;2.67;;;12.20;99.90;;;;;;5026150;28;20490;-67
2021/05/26 09:18:56;;;;;;;2.87;2.60;;;12.30;99.90;;;;;;5019431;28;20793;-67
2021/05/26 09:21:43;;;;;;;4.60;3.23;;;12.30;99.90;;;;;;5022727;28;20439;-69
2021/05/26 09:24:21;;;;;;;4.90;2.67;;;12.30;99.90;;;;;;5020754;28;20446;-68
2021/05/26 09:27:00;;;;;;;5.73;2.30;;;12.30;99.90;;;;;;5022574;28;20455;-67
2021/05/26 09:29:31;;;;;;;6.43;2.97;;;12.40;99.90;;;;;;5015502;28;20542;-69
2021/05/26 09:32:19;;;;;;;5.97;2.60;;;12.20;99.90;;;;;;5026811;28;21633;-69
2021/05/26 09:34:50;;;;;;;6.03;2.60;;;12.20;99.90;;;;;;5026739;28;20435;-68
2021/05/26 09:37:24;;;;;;;6.20;2.50;;;12.30;99.90;;;;;;5026312;28;20482;-68
2021/05/26 09:40:13;;;;;;;4.13;2.70;;;12.30;99.90;;;;;;5026029;28;20426;-70
2021/05/26 09:42:38;;;;;;;5.77;2.53;;;12.30;99.90;;;;;;5027789;28;21278;-69
2021/05/26 09:45:33;;;;;;;3.43;2.23;;;12.30;99.90;;;;;;5026205;28;20573;-69
2021/05/26 09:47:59;;;;;;;3.10;2.57;;;12.30;99.90;;;;;;5024829;28;20215;-69
2021/05/26 09:50:26;;;;;;;6.33;2.87;;;12.30;99.90;;;;;;5025787;28;20442;-67
2021/05/26 09:52:58;;;;;;;4.70;2.33;;;12.40;99.90;;;;;;5024758;28;20188;-69
2021/05/26 09:55:26;;;;;;;3.60;2.67;;;12.30;99.90;;;;;;5021718;28;20477;-66
2021/05/26 09:57:53;;;;;;;4.77;2.43;;;12.20;99.90;;;;;;5026302;28;20528;-68
2021/05/26 10:00:19;;;;;;;4.27;2.47;;;12.10;99.90;;;;;;5021289;28;20443;-68
2021/05/26 10:02:46;;;;;;;2.90;2.50;;;12.10;99.90;;;;;;5024817;28;20465;-68
2021/05/26 10:05:17;;;;;;;2.73;2.20;;;12.10;99.90;;;;;;5023716;28;20466;-68
2021/05/26 10:07:44;;;;;;;3.57;2.20;;;12.10;99.90;;;;;;5019657;28;20970;-67
2021/05/26 10:10:12;;;;;;;7.27;2.13;;;12.30;99.90;;;;;;5025713;28;20434;-68
2021/05/26 10:12:42;;;;;;;4.17;1.80;;;12.20;99.90;;;;;;5017597;28;20450;-68
2021/05/26 10:15:09;;;;;;;3.53;2.00;;;12.10;99.90;;;;;;5021633;28;20816;-69
2021/05/26 10:17:41;;;;;;;2.60;2.10;;;12.00;99.90;;;;;;5025960;28;20534;-68
2021/05/26 10:20:11;;;;;;;3.00;2.17;;;12.10;99.90;;;;;;5022109;28;20451;-69
2021/05/26 10:22:38;;;;;;;5.30;2.50;;;12.10;99.90;;;;;;5017645;28;20471;-70
2021/05/26 10:25:06;;;;;;;2.10;1.90;;;12.20;99.90;;;;;;5023128;28;20493;-68
2021/05/26 10:27:36;;;;;;;4.00;2.00;;;12.20;99.90;;;;;;5018352;28;20451;-67
2021/05/26 10:30:06;;;;;;;3.77;1.80;;;12.10;99.90;;;;;;5025366;28;20438;-68
2021/05/26 10:33:05;;;;;;;4.50;2.00;;;12.10;99.90;;;;;;5017063;28;20449;-68
2021/05/26 10:35:55;;;;;;;2.60;1.83;;;12.20;99.90;;;;;;5000777;28;20470;-69
2021/05/26 10:38:21;;;;;;;2.33;1.97;;;12.20;99.90;;;;;;5020522;28;20431;-68
2021/05/26 10:40:51;;;;;;;1.50;1.40;;;12.20;99.90;;;;;;5023410;28;20450;-67
2021/05/26 10:43:17;;;;;;;1.70;1.60;;;12.20;99.90;;;;;;5023318;28;20608;-68
2021/05/26 10:45:44;;;;;;;2.50;1.80;;;12.30;99.90;;;;;;5023544;28;20457;-68
2021/05/26 10:48:10;;;;;;;1.73;1.63;;;12.40;99.90;;;;;;5023220;28;20443;-70
2021/05/26 10:50:50;;;;;;;2.40;1.80;;;12.40;99.90;;;;;;5021948;28;20475;-67
2021/05/26 10:53:17;;;;;;;2.13;1.93;;;12.50;99.90;;;;;;5019836;28;20458;-68
2021/05/26 10:55:43;;;;;;;1.70;1.60;;;12.50;99.90;;;;;;5017353;28;20556;-67
2021/05/26 10:58:34;;;;;;;1.60;1.50;;;12.50;99.90;;;;;;5020772;28;20447;-68
2021/05/26 11:01:05;;;;;;;3.10;1.77;;;12.50;99.90;;;;;;5025806;28;20759;-67
2021/05/26 11:03:35;;;;;;;1.63;1.53;;;12.40;99.90;;;;;;5024028;28;21003;-68
2021/05/26 11:06:13;;;;;;;2.17;1.80;;;12.40;99.90;;;;;;5022256;28;20459;-68
2021/05/26 11:08:48;;;;;;;2.63;2.07;;;12.50;99.90;;;;;;5023292;28;20909;-68
2021/05/26 11:14:04;;;;;;;2.60;2.37;;;12.50;99.90;;;;;;5022836;28;20492;-68
2021/05/26 11:16:45;;;;;;;2.90;1.80;;;12.50;99.90;;;;;;5021276;28;20619;-68
2021/05/26 11:19:17;;;;;;;3.67;2.20;;;12.60;99.90;;;;;;5022981;28;20431;-67
2021/05/26 11:21:57;;;;;;;2.20;1.90;;;12.60;99.90;;;;;;5021271;28;20431;-68
2021/05/26 11:24:25;;;;;;;2.03;1.70;;;12.70;99.90;;;;;;5020301;28;20494;-67
2021/05/26 11:26:50;;;;;;;2.20;1.70;;;12.70;99.90;;;;;;5011436;28;21007;-67
2021/05/26 11:29:33;;;;;;;2.10;1.90;;;12.70;99.90;;;;;;5019144;28;20455;-68
2021/05/26 11:32:13;;;;;;;2.37;1.90;;;12.80;99.90;;;;;;5019523;28;20448;-67
2021/05/26 11:34:41;;;;;;;2.00;1.80;;;12.80;99.90;;;;;;5022628;28;20550;-68
2021/05/26 11:37:08;;;;;;;2.17;1.97;;;13.00;99.90;;;;;;5019744;28;20482;-68
2021/05/26 11:39:35;;;;;;;2.63;2.43;;;13.00;99.90;;;;;;5021985;28;20541;-67
2021/05/26 11:42:16;;;;;;;3.17;2.17;;;13.00;99.90;;;;;;5022885;28;20892;-68
2021/05/26 11:45:06;;;;;;;2.90;2.23;;;13.00;99.90;;;;;;5024295;28;20435;-68
2021/05/26 11:47:39;;;;;;;3.20;1.93;;;12.90;99.90;;;;;;5022031;28;20451;-68
2021/05/26 11:50:16;;;;;;;1.73;1.57;;;13.00;99.90;;;;;;5024585;28;20432;-68
2021/05/26 11:52:47;;;;;;;2.30;2.10;;;13.10;99.90;;;;;;5020804;28;20997;-68
2021/05/26 11:55:18;;;;;;;4.03;1.90;;;13.20;99.90;;;;;;5021545;28;20435;-68
2021/05/26 11:57:46;;;;;;;3.20;2.50;;;13.10;99.90;;;;;;5018114;28;20467;-68
2021/05/26 12:00:35;;;;;;;2.73;2.00;;;13.10;99.90;;;;;;5021661;28;20612;-68
2021/05/26 12:03:09;;;;;;;2.47;2.27;;;13.20;99.90;;;;;;5020707;28;20431;-68
2021/05/26 12:05:41;;;;;;;2.20;1.80;;;13.30;99.90;;;;;;5023095;28;20976;-68
2021/05/26 12:08:17;;;;;;;2.10;2.00;;;13.30;99.90;;;;;;5020275;28;20495;-68
2021/05/26 12:10:51;;;;;;;2.60;2.10;;;13.30;99.90;;;;;;5024685;28;20438;-68
2021/05/26 12:13:18;;;;;;;2.43;2.20;;;13.30;99.90;;;;;;5020380;28;21126;-68
2021/05/26 12:15:44;;;;;;;2.63;2.40;;;13.30;99.90;;;;;;5020740;28;20463;-68
2021/05/26 12:18:10;;;;;;;3.60;2.07;;;13.30;99.90;;;;;;5022629;28;20435;-68
2021/05/26 12:20:36;;;;;;;5.47;2.70;;;13.20;99.90;;;;;;5024800;28;20441;-68
2021/05/26 12:23:02;;;;;;;3.10;2.07;;;13.30;99.90;;;;;;5020438;28;20904;-68
2021/05/26 12:25:40;;;;;;;3.77;2.80;;;13.30;99.90;;;;;;5023279;28;20463;-69
2021/05/26 12:28:17;;;;;;;2.37;2.17;;;13.30;99.90;;;;;;5022205;28;20196;-67
2021/05/26 12:30:43;;;;;;;2.13;2.00;;;13.30;99.90;;;;;;5018326;28;20458;-67
2021/05/26 12:33:23;;;;;;;2.60;2.40;;;13.30;99.90;;;;;;5023267;28;20444;-68
2021/05/26 12:36:07;;;;;;;2.40;2.20;;;13.20;99.90;;;;;;5020450;28;20216;-69
2021/05/26 12:38:35;;;;;;;2.73;1.90;;;13.20;99.90;;;;;;5022466;28;20427;-68
2021/05/26 12:41:32;;;;;;;2.50;2.30;;;13.40;99.90;;;;;;5021057;28;20471;-68
2021/05/26 12:44:16;;;;;;;2.20;2.00;;;13.40;99.90;;;;;;5022448;28;20431;-68
2021/05/26 12:46:52;;;;;;;2.33;2.13;;;13.50;99.90;;;;;;5017458;28;20546;-68
2021/05/26 12:49:24;;;;;;;2.63;2.00;;;13.70;99.90;;;;;;5022809;28;20449;-68
2021/05/26 12:51:50;;;;;;;2.00;1.73;;;13.70;99.90;;;;;;5025184;28;20434;-69
2021/05/26 12:54:16;;;;;;;5.77;1.80;;;13.70;99.90;;;;;;5020008;28;20496;-69
2021/05/26 12:56:41;;;;;;;2.23;2.03;;;13.70;99.90;;;;;;5017970;28;20470;-67